createdAt,value
2022-10-05T00:00:56.978Z,100.00
2022-10-05T00:03:28.473Z,100.00
2022-10-05T00:05:59.197Z,100.00
2022-10-05T00:08:33.377Z,100.00
2022-10-05T00:11:03.083Z,100.00
2022-10-05T00:13:32.683Z,100.00
2022-10-05T00:16:11.035Z,100.00
2022-10-05T00:18:40.564Z,100.00
2022-10-05T00:21:24.082Z,100.00
2022-10-05T00:23:55.486Z,100.00
2022-10-05T00:26:26.869Z,100.00
2022-10-05T00:28:56.666Z,100.00
2022-10-05T00:31:27.768Z,100.00
2022-10-05T00:33:58.533Z,100.00
2022-10-05T00:36:28.370Z,100.00
2022-10-05T00:38:57.646Z,100.00
2022-10-05T00:41:48.709Z,100.00
2022-10-05T00:44:24.062Z,100.00
2022-10-05T00:47:05.645Z,100.00
2022-10-05T00:49:58.947Z,100.00
2022-10-05T00:52:48.811Z,100.00
2022-10-05T00:55:24.288Z,100.00
2022-10-05T00:58:12.110Z,100.00
2022-10-05T01:01:07.287Z,100.00
2022-10-05T01:03:51.461Z,100.00
2022-10-05T01:06:29.770Z,100.00
2022-10-05T01:09:20.292Z,100.00
2022-10-05T01:12:01.976Z,100.00
2022-10-05T01:14:56.510Z,100.00
2022-10-05T01:17:37.638Z,100.00
2022-10-05T01:20:19.966Z,100.00
2022-10-05T01:23:11.601Z,100.00
2022-10-05T01:25:44.059Z,100.00
2022-10-05T01:28:30.620Z,100.00
2022-10-05T01:31:18.466Z,100.00
2022-10-05T01:33:51.157Z,100.00
2022-10-05T01:36:21.455Z,100.00
2022-10-05T01:38:56.877Z,100.00
2022-10-05T01:41:45.237Z,100.00
2022-10-05T01:44:20.152Z,100.00
2022-10-05T01:47:17.122Z,100.00
2022-10-05T01:50:01.682Z,100.00
2022-10-05T01:52:45.362Z,100.00
2022-10-05T01:55:32.823Z,100.00
2022-10-05T01:58:15.172Z,100.00
2022-10-05T02:00:53.237Z,100.00
2022-10-05T02:03:26.460Z,100.00
2022-10-05T02:05:58.208Z,100.00
2022-10-05T02:08:37.239Z,100.00
2022-10-05T02:11:12.320Z,100.00
2022-10-05T02:13:53.638Z,100.00
2022-10-05T02:16:44.498Z,100.00
2022-10-05T02:19:25.642Z,100.00
2022-10-05T02:22:01.414Z,100.00
2022-10-05T02:24:35.557Z,100.00
2022-10-05T02:27:06.676Z,100.00
2022-10-05T02:29:38.790Z,100.00
2022-10-05T02:32:14.441Z,100.00
2022-10-05T02:34:44.807Z,100.00
2022-10-05T02:37:25.021Z,100.00
2022-10-05T02:40:28.720Z,100.00
2022-10-05T02:43:07.464Z,100.00
2022-10-05T02:45:51.744Z,100.00
2022-10-05T02:48:30.528Z,100.00
2022-10-05T02:51:05.878Z,100.00
2022-10-05T02:53:41.166Z,100.00
2022-10-05T02:56:13.703Z,100.00
2022-10-05T02:58:48.812Z,100.00
2022-10-05T03:01:40.919Z,100.00
2022-10-05T03:04:28.714Z,100.00
2022-10-05T03:07:13.907Z,100.00
2022-10-05T03:09:55.667Z,100.00
2022-10-05T03:12:45.568Z,100.00
2022-10-05T03:15:30.519Z,100.00
2022-10-05T03:18:21.013Z,100.00
2022-10-05T03:21:02.462Z,100.00
2022-10-05T03:23:40.889Z,100.00
2022-10-05T03:26:29.552Z,100.00
2022-10-05T03:29:05.079Z,100.00
2022-10-05T03:31:53.482Z,100.00
2022-10-05T03:34:31.855Z,98.54
2022-10-05T03:37:06.173Z,98.50
2022-10-05T03:39:46.377Z,97.65
2022-10-05T03:42:34.627Z,96.87
2022-10-05T03:45:18.819Z,97.22
2022-10-05T03:48:07.824Z,97.70
2022-10-05T03:51:08.170Z,96.55
2022-10-05T03:53:49.788Z,95.68
2022-10-05T03:56:34.613Z,96.00
2022-10-05T03:59:31.542Z,96.53
2022-10-05T04:02:09.115Z,97.16
2022-10-05T04:04:44.700Z,98.22
2022-10-05T04:07:33.566Z,97.77
2022-10-05T04:10:06.924Z,96.83
2022-10-05T04:12:41.688Z,96.95
2022-10-05T04:15:19.045Z,96.56
2022-10-05T04:17:51.724Z,97.29
2022-10-05T04:20:40.785Z,97.15
2022-10-05T04:23:15.054Z,97.11
2022-10-05T04:25:47.259Z,95.78
2022-10-05T04:28:44.432Z,95.64
2022-10-05T04:31:20.911Z,94.88
2022-10-05T04:33:54.364Z,95.03
2022-10-05T04:36:25.677Z,94.89
2022-10-05T04:39:13.408Z,95.22
2022-10-05T04:41:54.613Z,94.26
2022-10-05T04:45:02.620Z,93.64
2022-10-05T04:47:42.317Z,94.72
2022-10-05T04:50:32.438Z,95.36
2022-10-05T04:53:12.793Z,96.41
2022-10-05T04:55:52.433Z,96.41
2022-10-05T04:58:32.346Z,96.32
2022-10-05T05:01:08.836Z,96.88
2022-10-05T05:03:53.954Z,96.80
2022-10-05T05:06:32.521Z,96.88
2022-10-05T05:09:23.533Z,97.94
2022-10-05T05:12:16.489Z,97.04
2022-10-05T05:15:04.900Z,95.65
2022-10-05T05:17:55.384Z,95.88
2022-10-05T05:20:36.928Z,95.69
2022-10-05T05:23:39.819Z,95.06
2022-10-05T05:26:15.889Z,95.19
2022-10-05T05:28:57.481Z,95.12
2022-10-05T05:31:35.834Z,96.17
2022-10-05T05:34:23.107Z,95.72
2022-10-05T05:36:58.127Z,96.09
2022-10-05T05:39:29.601Z,96.45
2022-10-05T05:42:02.525Z,96.76
2022-10-05T05:44:38.965Z,97.42
2022-10-05T05:47:20.767Z,98.38
2022-10-05T05:50:08.196Z,98.61
2022-10-05T05:52:48.215Z,99.48
2022-10-05T05:55:30.717Z,100.00
2022-10-05T05:58:19.559Z,100.00
2022-10-05T06:01:04.121Z,100.00
2022-10-05T06:03:42.776Z,100.00
2022-10-05T06:06:16.197Z,100.00
2022-10-05T06:08:56.785Z,100.00
2022-10-05T06:11:38.437Z,100.00
2022-10-05T06:14:14.134Z,100.00
2022-10-05T06:16:47.295Z,100.00
2022-10-05T06:19:22.966Z,100.00
2022-10-05T06:22:11.878Z,100.00
2022-10-05T06:24:52.068Z,100.00
2022-10-05T06:27:24.528Z,100.00
2022-10-05T06:30:09.161Z,100.00
2022-10-05T06:32:55.569Z,100.00
2022-10-05T06:36:02.214Z,100.00
2022-10-05T06:38:37.698Z,100.00
2022-10-05T06:41:30.118Z,100.00
2022-10-05T06:44:26.650Z,100.00
2022-10-05T06:47:12.394Z,100.00
2022-10-05T06:49:57.264Z,99.92
2022-10-05T06:52:45.681Z,99.54
2022-10-05T06:55:33.186Z,99.19
2022-10-05T06:58:06.165Z,99.64
2022-10-05T07:00:40.908Z,99.01
2022-10-05T07:03:28.458Z,98.79
2022-10-05T07:06:16.183Z,99.66
2022-10-05T07:09:14.344Z,100.00
2022-10-05T07:11:58.404Z,100.00
2022-10-05T07:14:48.497Z,99.80
2022-10-05T07:17:39.499Z,100.00
2022-10-05T07:20:26.875Z,99.62
2022-10-05T07:23:02.899Z,100.00
2022-10-05T07:25:44.885Z,100.00
2022-10-05T07:28:20.436Z,100.00
2022-10-05T07:30:58.758Z,100.00
2022-10-05T07:33:46.102Z,100.00
2022-10-05T07:36:36.503Z,100.00
2022-10-05T07:39:21.395Z,99.93
2022-10-05T07:42:00.177Z,99.72
2022-10-05T07:44:36.854Z,99.97
2022-10-05T07:47:18.186Z,99.90
2022-10-05T07:50:01.725Z,99.42
2022-10-05T07:52:43.497Z,99.44
2022-10-05T07:55:20.297Z,99.85
2022-10-05T07:58:28.961Z,99.60
2022-10-05T08:01:02.828Z,98.19
2022-10-05T08:04:09.248Z,97.70
2022-10-05T08:06:56.182Z,96.19
2022-10-05T08:09:36.120Z,96.97
2022-10-05T08:12:26.120Z,95.58
2022-10-05T08:15:15.825Z,95.28
2022-10-05T08:17:56.963Z,95.53
2022-10-05T08:20:49.247Z,94.77
2022-10-05T08:23:38.688Z,94.83
2022-10-05T08:26:21.789Z,94.66
2022-10-05T08:29:13.784Z,93.75
2022-10-05T08:31:45.617Z,95.14
2022-10-05T08:34:40.370Z,95.20
2022-10-05T08:37:12.962Z,94.47
2022-10-05T08:39:42.610Z,94.04
2022-10-05T08:42:23.890Z,94.56
2022-10-05T08:44:59.204Z,93.85
2022-10-05T08:47:40.320Z,93.68
2022-10-05T08:50:24.780Z,93.55
2022-10-05T08:53:13.445Z,94.04
2022-10-05T08:55:54.703Z,94.00
2022-10-05T08:58:38.610Z,94.80
2022-10-05T09:01:27.519Z,94.22
2022-10-05T09:04:19.614Z,93.26
2022-10-05T09:07:10.806Z,92.90
2022-10-05T09:10:02.073Z,93.14
2022-10-05T09:13:08.206Z,93.46
2022-10-05T09:15:57.062Z,92.78
2022-10-05T09:18:44.633Z,93.74
2022-10-05T09:21:42.402Z,93.48
2022-10-05T09:24:17.432Z,93.00
2022-10-05T09:27:10.955Z,94.08
2022-10-05T09:29:59.572Z,94.21
2022-10-05T09:33:04.089Z,94.51
2022-10-05T09:35:54.648Z,93.70
2022-10-05T09:38:51.661Z,93.52
2022-10-05T09:41:32.956Z,91.98
2022-10-05T09:44:05.541Z,91.68
2022-10-05T09:46:38.395Z,92.67
2022-10-05T09:49:39.623Z,93.17
2022-10-05T09:52:33.143Z,93.44
2022-10-05T09:55:25.648Z,94.70
2022-10-05T09:58:22.498Z,93.96
2022-10-05T10:01:09.303Z,94.20
2022-10-05T10:04:05.631Z,93.75
2022-10-05T10:06:44.500Z,93.86
2022-10-05T10:09:22.578Z,93.30
2022-10-05T10:12:10.034Z,92.81
2022-10-05T10:14:55.775Z,91.49
2022-10-05T10:17:47.960Z,90.49
2022-10-05T10:20:25.992Z,91.80
2022-10-05T10:22:58.440Z,92.38
2022-10-05T10:25:39.991Z,92.20
2022-10-05T10:28:43.070Z,91.45
2022-10-05T10:31:25.931Z,90.96
2022-10-05T10:34:22.888Z,90.91
2022-10-05T10:37:20.822Z,90.85
2022-10-05T10:40:04.915Z,90.61
2022-10-05T10:42:40.243Z,91.86
2022-10-05T10:45:15.400Z,92.40
2022-10-05T10:47:57.016Z,90.64
2022-10-05T10:50:41.449Z,89.32
2022-10-05T10:53:36.604Z,88.41
2022-10-05T10:56:09.256Z,86.69
2022-10-05T10:58:53.471Z,85.83
2022-10-05T11:01:26.132Z,84.91
2022-10-05T11:04:01.889Z,85.05
2022-10-05T11:06:57.191Z,84.10
2022-10-05T11:10:01.171Z,85.28
2022-10-05T11:13:01.004Z,84.69
2022-10-05T11:16:00.868Z,83.05
2022-10-05T11:18:49.738Z,84.23
2022-10-05T11:21:34.454Z,82.57
2022-10-05T11:24:15.965Z,79.55
2022-10-05T11:26:54.233Z,78.57
2022-10-05T11:29:49.313Z,80.01
2022-10-05T11:32:39.633Z,80.77
2022-10-05T11:35:30.990Z,80.42
2022-10-05T11:38:24.234Z,82.36
2022-10-05T11:41:28.040Z,83.28
2022-10-05T11:44:27.399Z,81.39
2022-10-05T11:47:02.875Z,80.83
2022-10-05T11:49:40.977Z,80.28
2022-10-05T11:52:19.583Z,80.05
2022-10-05T11:55:16.422Z,79.52
2022-10-05T11:58:04.357Z,79.52
2022-10-05T12:00:41.316Z,81.09
2022-10-05T12:03:40.924Z,81.03
2022-10-05T12:06:28.933Z,80.71
2022-10-05T12:09:27.576Z,80.67
2022-10-05T12:12:16.607Z,79.94
2022-10-05T12:14:57.837Z,77.15
2022-10-05T12:17:42.190Z,77.32
2022-10-05T12:20:17.791Z,77.47
2022-10-05T12:22:56.756Z,79.77
2022-10-05T12:25:34.889Z,79.35
2022-10-05T12:28:16.463Z,80.65
2022-10-05T12:31:06.377Z,79.91
2022-10-05T12:33:41.950Z,79.59
2022-10-05T12:36:35.998Z,79.58
2022-10-05T12:39:05.246Z,80.87
2022-10-05T12:41:46.481Z,82.00
2022-10-05T12:44:43.263Z,81.40
2022-10-05T12:47:18.342Z,80.06
2022-10-05T12:50:06.145Z,78.90
2022-10-05T12:52:50.619Z,78.14
2022-10-05T12:55:31.613Z,79.12
2022-10-05T12:58:07.547Z,78.06
2022-10-05T13:00:40.389Z,78.76
2022-10-05T13:03:19.097Z,78.66
2022-10-05T13:06:02.348Z,78.92
2022-10-05T13:08:40.507Z,76.90
2022-10-05T13:11:28.209Z,76.62
2022-10-05T13:14:09.686Z,78.16
2022-10-05T13:16:55.265Z,78.06
2022-10-05T13:19:48.934Z,79.31
2022-10-05T13:22:24.439Z,79.78
2022-10-05T13:24:59.809Z,80.02
2022-10-05T13:27:31.275Z,80.29
2022-10-05T13:30:08.445Z,79.80
2022-10-05T13:32:57.698Z,80.59
2022-10-05T13:35:41.893Z,79.92
2022-10-05T13:38:23.613Z,78.95
2022-10-05T13:40:57.826Z,79.36
2022-10-05T13:43:51.326Z,79.45
2022-10-05T13:46:36.823Z,79.21
2022-10-05T13:49:25.911Z,78.75
2022-10-05T13:52:04.033Z,77.41
2022-10-05T13:54:39.135Z,77.56
2022-10-05T13:57:22.180Z,78.17
2022-10-05T13:59:54.713Z,76.65
2022-10-05T14:02:30.748Z,77.36
2022-10-05T14:05:01.558Z,77.34
2022-10-05T14:07:54.749Z,78.54
2022-10-05T14:10:42.135Z,80.25
2022-10-05T14:13:20.419Z,78.11
2022-10-05T14:16:05.389Z,78.66
2022-10-05T14:18:37.754Z,78.96
2022-10-05T14:21:16.680Z,79.06
2022-10-05T14:23:46.598Z,80.08
2022-10-05T14:26:21.803Z,80.75
2022-10-05T14:29:18.071Z,80.98
2022-10-05T14:32:01.645Z,82.12
2022-10-05T14:34:34.884Z,81.90
2022-10-05T14:37:21.522Z,81.72
2022-10-05T14:39:53.940Z,82.12
2022-10-05T14:42:28.400Z,82.87
2022-10-05T14:45:00.908Z,83.22
2022-10-05T14:47:31.245Z,81.86
2022-10-05T14:50:13.734Z,82.07
2022-10-05T14:52:51.685Z,81.00
2022-10-05T14:55:27.728Z,80.68
2022-10-05T14:58:11.815Z,80.85
2022-10-05T15:00:50.296Z,80.82
2022-10-05T15:03:26.597Z,80.33
2022-10-05T15:05:58.986Z,78.20
2022-10-05T15:08:49.549Z,78.64
2022-10-05T15:11:24.451Z,79.37
2022-10-05T15:13:54.150Z,79.06
2022-10-05T15:16:29.552Z,78.44
2022-10-05T15:19:23.287Z,79.94
2022-10-05T15:22:00.170Z,79.19
2022-10-05T15:24:45.520Z,79.61
2022-10-05T15:27:17.894Z,79.52
2022-10-05T15:30:05.473Z,80.00
2022-10-05T15:32:39.508Z,79.65
2022-10-05T15:35:20.650Z,79.24
2022-10-05T15:37:55.068Z,79.27
2022-10-05T15:40:28.064Z,80.34
2022-10-05T15:43:01.649Z,80.69
2022-10-05T15:45:34.195Z,80.60
2022-10-05T15:48:10.641Z,80.02
2022-10-05T15:50:50.712Z,81.03
2022-10-05T15:53:26.195Z,82.30
2022-10-05T15:56:04.015Z,82.05
2022-10-05T15:58:45.097Z,82.36
2022-10-05T16:01:23.276Z,82.25
2022-10-05T16:04:04.694Z,82.66
2022-10-05T16:07:18.589Z,82.54
2022-10-05T16:10:06.249Z,83.28
2022-10-05T16:12:50.720Z,83.42
2022-10-05T16:15:29.150Z,83.95
2022-10-05T16:18:18.749Z,83.85
2022-10-05T16:21:03.241Z,84.14
2022-10-05T16:23:55.419Z,84.50
2022-10-05T16:26:46.137Z,84.16
2022-10-05T16:29:21.512Z,84.68
2022-10-05T16:31:59.982Z,84.40
2022-10-05T16:34:37.672Z,84.90
2022-10-05T16:37:32.098Z,85.27
2022-10-05T16:40:04.579Z,85.48
2022-10-05T16:42:35.165Z,85.70
2022-10-05T16:45:23.718Z,85.53
2022-10-05T16:48:08.279Z,86.06
2022-10-05T16:50:44.028Z,86.77
2022-10-05T16:53:28.446Z,86.46
2022-10-05T16:56:01.170Z,87.88
2022-10-05T16:58:42.478Z,87.35
2022-10-05T17:01:26.687Z,87.52
2022-10-05T17:04:02.171Z,87.75
2022-10-05T17:06:50.878Z,87.55
2022-10-05T17:09:38.530Z,88.08
2022-10-05T17:12:32.038Z,87.79
2022-10-05T17:15:32.614Z,88.13
2022-10-05T17:18:27.543Z,88.57
2022-10-05T17:21:00.084Z,88.13
2022-10-05T17:23:32.546Z,88.76
2022-10-05T17:26:33.926Z,89.52
2022-10-05T17:29:18.229Z,89.36
2022-10-05T17:32:09.279Z,89.31
2022-10-05T17:35:02.208Z,89.28
2022-10-05T17:37:34.115Z,89.01
2022-10-05T17:40:27.722Z,89.49
2022-10-05T17:43:02.229Z,89.13
2022-10-05T17:45:34.648Z,89.03
2022-10-05T17:48:11.771Z,89.47
2022-10-05T17:51:06.553Z,90.60
2022-10-05T17:53:56.027Z,89.81
2022-10-05T17:56:25.504Z,90.11
2022-10-05T17:59:00.826Z,90.27
2022-10-05T18:01:34.001Z,90.61
2022-10-05T18:04:21.650Z,90.05
2022-10-05T18:07:02.566Z,90.40
2022-10-05T18:09:37.710Z,90.69
2022-10-05T18:12:21.256Z,90.40
2022-10-05T18:15:05.654Z,91.02
2022-10-05T18:18:01.090Z,90.63
2022-10-05T18:20:34.914Z,91.07
2022-10-05T18:23:10.486Z,91.29
2022-10-05T18:26:11.071Z,90.66
2022-10-05T18:28:49.908Z,90.65
2022-10-05T18:31:39.172Z,90.12
2022-10-05T18:34:17.716Z,90.27
2022-10-05T18:37:08.238Z,90.82
2022-10-05T18:39:43.892Z,90.92
2022-10-05T18:42:28.285Z,91.20
2022-10-05T18:45:06.550Z,91.98
2022-10-05T18:47:47.666Z,92.10
2022-10-05T18:50:21.532Z,91.83
2022-10-05T18:53:11.882Z,91.47
2022-10-05T18:55:47.234Z,91.79
2022-10-05T18:58:29.397Z,92.51
2022-10-05T19:01:34.032Z,92.86
2022-10-05T19:04:22.955Z,94.19
2022-10-05T19:07:07.519Z,95.93
2022-10-05T19:10:15.000Z,97.37
2022-10-05T19:12:56.653Z,98.11
2022-10-05T19:15:59.634Z,98.79
2022-10-05T19:18:54.346Z,99.91
2022-10-05T19:21:26.969Z,100.00
2022-10-05T19:24:01.194Z,100.00
2022-10-05T19:27:00.730Z,100.00
2022-10-05T19:29:54.450Z,100.00
2022-10-05T19:32:41.872Z,100.00
2022-10-05T19:35:17.141Z,100.00
2022-10-05T19:38:14.446Z,100.00
2022-10-05T19:40:56.572Z,100.00
2022-10-05T19:43:53.545Z,100.00
2022-10-05T19:46:37.678Z,100.00
2022-10-05T19:49:10.920Z,100.00
2022-10-05T19:51:52.544Z,100.00
2022-10-05T19:54:26.814Z,100.00
2022-10-05T19:56:57.213Z,100.00
2022-10-05T19:59:34.789Z,100.00
2022-10-05T20:02:04.294Z,100.00
2022-10-05T20:04:41.530Z,100.00
2022-10-05T20:07:16.911Z,100.00
2022-10-05T20:09:56.782Z,100.00
2022-10-05T20:12:54.489Z,100.00
2022-10-05T20:15:46.525Z,100.00
2022-10-05T20:19:02.775Z,100.00
2022-10-05T20:21:41.114Z,100.00
2022-10-05T20:24:13.304Z,100.00
2022-10-05T20:27:05.253Z,100.00
2022-10-05T20:29:36.773Z,100.00
2022-10-05T20:32:12.415Z,100.00
2022-10-05T20:34:43.010Z,100.00
2022-10-05T20:37:14.296Z,100.00
2022-10-05T20:39:44.489Z,100.00
2022-10-05T20:42:14.163Z,100.00
2022-10-05T20:44:43.883Z,100.00
2022-10-05T20:47:13.966Z,100.00
2022-10-05T20:49:44.588Z,100.00
2022-10-05T20:52:15.872Z,100.00
2022-10-05T20:57:15.930Z,100.00
2022-10-05T20:59:47.274Z,100.00
2022-10-05T21:02:16.942Z,100.00
2022-10-05T21:04:50.503Z,100.00
2022-10-05T21:07:21.724Z,100.00
2022-10-05T21:09:51.670Z,100.00
2022-10-05T21:12:20.935Z,100.00
2022-10-05T21:14:51.819Z,100.00
2022-10-05T21:17:21.205Z,100.00
2022-10-05T21:19:50.882Z,100.00
2022-10-05T21:22:20.137Z,100.00
2022-10-05T21:24:49.746Z,100.00
2022-10-05T21:27:19.265Z,100.00
2022-10-05T21:29:48.996Z,100.00
2022-10-05T21:32:18.486Z,100.00
2022-10-05T21:34:47.741Z,100.00
2022-10-05T21:37:18.168Z,100.00
2022-10-05T21:39:47.691Z,100.00
2022-10-05T21:42:16.925Z,100.00
2022-10-05T21:44:46.400Z,100.00
2022-10-05T21:47:15.734Z,100.00
2022-10-05T21:49:45.229Z,98.44
2022-10-05T21:52:14.624Z,97.04
2022-10-05T21:54:44.038Z,94.18
2022-10-05T21:57:14.707Z,92.59
2022-10-05T21:59:44.452Z,90.30
2022-10-05T22:02:13.716Z,91.03
2022-10-05T22:04:43.062Z,92.03
2022-10-05T22:07:19.412Z,91.77
2022-10-05T22:09:52.259Z,90.87
2022-10-05T22:12:21.797Z,90.13
2022-10-05T22:14:51.040Z,89.24
2022-10-05T22:17:23.613Z,88.32
2022-10-05T22:19:52.275Z,88.22
2022-10-05T22:22:22.341Z,88.75
2022-10-05T22:24:53.074Z,87.29
2022-10-05T22:27:27.773Z,87.53
2022-10-05T22:29:58.334Z,87.81
2022-10-05T22:32:27.545Z,88.02
2022-10-05T22:34:57.240Z,87.12
2022-10-05T22:37:26.787Z,87.29
2022-10-05T22:39:56.001Z,88.94
2022-10-05T22:42:25.596Z,89.04
2022-10-05T22:44:54.830Z,89.64
2022-10-05T22:47:24.174Z,89.76
2022-10-05T22:49:53.401Z,89.98
2022-10-05T22:52:22.644Z,90.93
2022-10-05T22:54:51.949Z,91.58
2022-10-05T22:57:21.295Z,92.05
2022-10-05T22:59:50.587Z,92.35
2022-10-05T23:02:20.161Z,92.01
2022-10-05T23:04:49.478Z,92.51
2022-10-05T23:07:18.771Z,92.95
2022-10-05T23:09:48.035Z,92.40
2022-10-05T23:12:19.267Z,91.64
2022-10-05T23:14:48.542Z,91.87
2022-10-05T23:17:22.214Z,92.35
2022-10-05T23:19:51.711Z,91.78
2022-10-05T23:22:21.885Z,91.90
2022-10-05T23:24:51.188Z,92.63
2022-10-05T23:27:20.600Z,92.35
2022-10-05T23:29:49.830Z,92.44
2022-10-05T23:32:19.322Z,92.39
2022-10-05T23:34:48.645Z,91.97
2022-10-05T23:37:19.692Z,92.11
2022-10-05T23:39:49.030Z,91.61
2022-10-05T23:42:18.639Z,91.04
2022-10-05T23:44:47.898Z,91.14
2022-10-05T23:47:17.228Z,90.49
2022-10-05T23:49:46.442Z,91.05
2022-10-05T23:52:15.726Z,91.29
2022-10-05T23:54:44.941Z,90.95
2022-10-05T23:57:19.061Z,91.37
2022-10-05T23:59:50.339Z,92.24
